Time;durP1;ratioP1;P1;durP2;ratioP2;P2;SDS_P1;SDS_P2;PMS_P1;PMS_P2;Temp;Humidity;BMP_temperature;BMP_pressure;BME280_temperature;BME280_humidity;BME280_pressure;Samples;Min_cycle;Max_cycle;Signal;HPM_P1;HPM_P2
2023/01/03 00:01:19;;;;;;;13.90;10.20;;;;;;;10.00;97.02;100187.34;5052340;28;20017;-76
2023/01/03 00:03:45;;;;;;;13.50;9.30;;;;;;;9.93;97.90;100179.81;5052307;28;20024;-76
2023/01/03 00:06:19;;;;;;;13.32;10.00;;;;;;;9.96;98.85;100203.13;5052408;28;20031;-76
2023/01/03 00:08:44;;;;;;;15.32;9.73;;;;;;;9.93;99.65;100198.88;5052442;28;20425;-76
2023/01/03 00:11:12;;;;;;;12.88;9.27;;;;;;;9.89;100.00;100194.69;5052006;28;20100;-76
2023/01/03 00:13:37;;;;;;;13.23;8.40;;;;;;;9.83;100.00;100176.69;5052209;28;20121;-76
2023/01/03 00:16:03;;;;;;;11.02;8.05;;;;;;;9.75;100.00;100184.75;5051784;28;20108;-76
2023/01/03 00:18:29;;;;;;;9.80;7.43;;;;;;;9.76;100.00;100177.81;5052411;28;20021;-76
2023/01/03 00:20:54;;;;;;;12.98;8.52;;;;;;;9.73;100.00;100185.72;5052065;28;20519;-76
2023/01/03 00:23:19;;;;;;;10.82;8.30;;;;;;;9.67;100.00;100186.78;5051970;28;20079;-76
2023/01/03 00:25:44;;;;;;;12.25;7.47;;;;;;;9.67;100.00;100199.78;5052100;28;20037;-76
2023/01/03 00:28:10;;;;;;;9.57;7.35;;;;;;;9.66;100.00;100211.09;5051179;28;20033;-76
2023/01/03 00:30:35;;;;;;;10.95;7.75;;;;;;;9.64;100.00;100219.84;5051834;28;20028;-76
2023/01/03 00:33:00;;;;;;;8.82;7.43;;;;;;;9.60;100.00;100218.25;5052015;28;20063;-76
2023/01/03 00:35:26;;;;;;;9.18;7.43;;;;;;;9.52;100.00;100210.69;5051850;28;20020;-76
2023/01/03 00:37:51;;;;;;;10.82;8.00;;;;;;;9.57;100.00;100214.00;5051824;28;20016;-76
2023/01/03 00:40:16;;;;;;;10.45;6.95;;;;;;;9.47;100.00;100210.00;5051764;28;20124;-76
2023/01/03 00:45:26;;;;;;;10.15;6.93;;;;;;;9.34;100.00;100201.75;5051762;28;20147;-76
2023/01/03 00:47:51;;;;;;;10.18;6.53;;;;;;;9.43;100.00;100226.59;5051794;28;20120;-76
2023/01/03 00:50:16;;;;;;;9.70;6.50;;;;;;;9.37;100.00;100225.06;5051379;28;20021;-76
2023/01/03 00:52:41;;;;;;;6.70;5.65;;;;;;;9.37;100.00;100227.66;5051760;28;20032;-76
2023/01/03 00:55:07;;;;;;;7.72;5.50;;;;;;;9.44;100.00;100249.13;5051612;28;20067;-76
2023/01/03 00:57:32;;;;;;;8.07;5.28;;;;;;;9.33;100.00;100233.84;5051788;28;20098;-76
2023/01/03 00:59:58;;;;;;;6.50;5.10;;;;;;;9.40;100.00;100261.38;5051692;28;20029;-76
2023/01/03 01:02:23;;;;;;;5.60;4.88;;;;;;;9.34;100.00;100255.50;5051626;28;20427;-76
2023/01/03 01:04:48;;;;;;;6.50;4.82;;;;;;;9.34;100.00;100252.91;5051805;28;20029;-76
2023/01/03 01:07:14;;;;;;;5.28;4.55;;;;;;;9.34;100.00;100251.16;5051457;28;20071;-76
2023/01/03 01:09:39;;;;;;;4.80;4.15;;;;;;;9.31;100.00;100261.63;5051926;28;20021;-76
2023/01/03 01:12:06;;;;;;;6.45;4.20;;;;;;;9.30;100.00;100270.34;5050182;28;20436;-76
2023/01/03 01:14:32;;;;;;;6.70;4.90;;;;;;;9.23;100.00;100267.09;5051491;28;20116;-76
2023/01/03 01:17:04;;;;;;;9.48;4.53;;;;;;;9.20;100.00;100287.13;5051662;28;20017;-76
2023/01/03 01:19:32;;;;;;;6.00;4.22;;;;;;;9.08;100.00;100277.09;5051269;28;20575;-76
2023/01/03 01:21:58;;;;;;;5.38;3.75;;;;;;;9.11;100.00;100282.22;5050278;28;20384;-76
2023/01/03 01:24:24;;;;;;;5.63;3.90;;;;;;;9.09;100.00;100282.25;5051100;28;20032;-76
2023/01/03 01:26:50;;;;;;;4.88;4.38;;;;;;;9.07;100.00;100278.88;5051418;28;20021;-76
2023/01/03 01:29:17;;;;;;;6.30;4.60;;;;;;;9.03;100.00;100285.03;5051634;28;20025;-76
2023/01/03 01:31:43;;;;;;;6.85;5.20;;;;;;;9.00;100.00;100290.31;5051559;28;20020;-76
2023/01/03 01:34:09;;;;;;;6.47;5.07;;;;;;;8.96;100.00;100286.13;5051112;28;20036;-76
2023/01/03 01:36:36;;;;;;;7.95;5.45;;;;;;;8.93;100.00;100286.19;5051737;28;20021;-76
2023/01/03 01:39:25;;;;;;;5.43;4.75;;;;;;;8.91;100.00;100294.03;5051260;28;20475;-76
2023/01/03 01:44:43;;;;;;;5.20;3.95;;;;;;;8.80;100.00;100290.06;5012977;28;20034;-76
2023/01/03 01:47:43;;;;;;;6.22;4.88;;;;;;;8.69;100.00;100283.44;5012603;28;20552;-76
2023/01/03 01:50:09;;;;;;;6.60;4.80;;;;;;;8.69;100.00;100290.38;5012679;28;20026;-76
2023/01/03 01:52:37;;;;;;;5.35;4.50;;;;;;;8.63;100.00;100291.38;5013090;28;20652;-76
2023/01/03 01:55:05;;;;;;;5.82;4.93;;;;;;;8.59;100.00;100289.78;5012761;28;20496;-76
2023/01/03 01:57:34;;;;;;;5.35;4.45;;;;;;;8.47;100.00;100278.00;5012581;28;20500;-76
2023/01/03 01:59:59;;;;;;;5.30;4.78;;;;;;;8.46;100.00;100280.63;5012664;28;20038;-76
2023/01/03 02:02:26;;;;;;;8.00;4.75;;;;;;;8.55;100.00;100292.50;5012348;28;20048;-76
2023/01/03 02:04:54;;;;;;;6.30;4.97;;;;;;;8.58;100.00;100285.47;5012680;28;20034;-76
2023/01/03 02:07:20;;;;;;;6.63;5.45;;;;;;;8.56;100.00;100287.28;5012387;28;20096;-76
2023/01/03 02:09:47;;;;;;;8.63;5.28;;;;;;;8.43;100.00;100286.78;5012335;28;20034;-76
2023/01/03 02:15:45;;;;;;;6.30;4.88;;;;;;;8.34;100.00;100304.28;5012371;28;20077;-76
2023/01/03 02:18:18;;;;;;;7.63;5.60;;;;;;;8.39;100.00;100321.50;4973298;28;20035;-76
2023/01/03 02:21:22;;;;;;;6.20;5.05;;;;;;;8.41;100.00;100326.63;4975881;28;20177;-76
2023/01/03 02:24:20;;;;;;;6.30;5.57;;;;;;;8.50;100.00;100331.56;5012245;28;20137;-76
2023/01/03 02:27:00;;;;;;;6.30;5.70;;;;;;;8.55;100.00;100327.09;5012354;28;20037;-76
2023/01/03 02:30:07;;;;;;;7.57;5.82;;;;;;;8.65;100.00;100335.50;5011929;28;20042;-76
2023/01/03 02:32:44;;;;;;;7.32;6.53;;;;;;;8.64;100.00;100336.41;5011982;28;20033;-76
2023/01/03 02:35:30;;;;;;;9.07;6.68;;;;;;;8.77;100.00;100349.91;5012308;28;20030;-76
2023/01/03 02:38:14;;;;;;;8.00;6.20;;;;;;;8.81;100.00;100352.38;5012066;28;20074;-76
2023/01/03 02:41:24;;;;;;;7.20;6.45;;;;;;;8.86;100.00;100363.47;5011849;28;20664;-76
2023/01/03 02:44:01;;;;;;;7.97;6.23;;;;;;;8.87;100.00;100359.97;4972846;28;20118;-76
2023/01/03 02:46:38;;;;;;;9.27;6.53;;;;;;;8.91;100.00;100363.34;4972725;28;20105;-76
2023/01/03 02:49:03;;;;;;;8.35;6.53;;;;;;;8.97;100.00;100370.94;4972618;28;20089;-76
2023/01/03 02:51:37;;;;;;;7.75;6.68;;;;;;;8.99;100.00;100371.78;4971641;28;20058;-76
2023/01/03 02:54:07;;;;;;;11.60;6.95;;;;;;;8.95;100.00;100365.81;4978993;28;20054;-76
2023/01/03 02:56:42;;;;;;;9.43;6.93;;;;;;;8.99;100.00;100369.19;5031185;28;20362;-76
2023/01/03 02:59:16;;;;;;;7.38;6.50;;;;;;;9.05;100.00;100376.78;5031713;28;20029;-76
2023/01/03 03:01:43;;;;;;;8.75;6.35;;;;;;;8.99;100.00;100363.97;5031165;28;20022;-76
2023/01/03 03:04:11;;;;;;;9.60;6.80;;;;;;;9.07;100.00;100376.75;5031237;28;20164;-76
2023/01/03 03:07:07;;;;;;;6.22;5.53;;;;;;;9.10;100.00;100387.03;5031142;28;20037;-76
2023/01/03 03:09:32;;;;;;;7.85;6.40;;;;;;;9.05;100.00;100381.13;4972170;28;20123;-76
2023/01/03 03:15:02;;;;;;;7.03;5.60;;;;;;;9.12;100.00;100388.72;4972603;28;20448;-76
2023/01/03 03:17:29;;;;;;;8.65;6.80;;;;;;;9.13;100.00;100398.19;4972004;28;20497;-76
2023/01/03 03:25:46;;;;;;;7.35;6.55;;;;;;;9.13;100.00;100402.56;4991451;28;20088;-76
2023/01/03 03:28:34;;;;;;;9.13;6.88;;;;;;;9.07;100.00;100392.34;4991650;28;20355;-76
2023/01/03 03:31:09;;;;;;;8.05;6.80;;;;;;;9.11;100.00;100400.00;4991695;28;20062;-76
2023/01/03 03:33:49;;;;;;;7.43;5.60;;;;;;;9.13;100.00;100403.41;4991551;28;20379;-76
2023/01/03 03:36:24;;;;;;;9.35;7.00;;;;;;;9.09;100.00;100396.59;4991145;28;20460;-76
2023/01/03 03:38:50;;;;;;;7.25;6.28;;;;;;;9.09;100.00;100401.78;4991005;28;20100;-76
2023/01/03 03:47:23;;;;;;;5.50;4.80;;;;;;;8.99;100.00;100408.16;5047413;28;20036;-76
2023/01/03 03:49:53;;;;;;;6.63;5.00;;;;;;;8.92;100.00;100402.25;5052648;28;20514;-76
2023/01/03 03:52:24;;;;;;;5.82;4.70;;;;;;;8.85;100.00;100402.47;5052790;28;20025;-76
2023/01/03 03:55:05;;;;;;;6.30;5.18;;;;;;;8.83;100.00;100399.06;5052630;28;20074;-76
2023/01/03 03:57:46;;;;;;;5.72;4.78;;;;;;;8.80;100.00;100412.13;5051221;28;20373;-76
2023/01/03 04:00:17;;;;;;;6.05;5.00;;;;;;;8.66;100.00;100402.13;5052757;28;20028;-76
2023/01/03 04:02:45;;;;;;;6.13;4.78;;;;;;;8.73;100.00;100414.91;5052395;28;20017;-76
2023/01/03 04:05:16;;;;;;;5.28;4.78;;;;;;;8.69;100.00;100422.81;5052427;28;20457;-76
2023/01/03 04:07:41;;;;;;;4.60;4.20;;;;;;;8.59;100.00;100414.41;5052456;28;20472;-76
2023/01/03 04:10:08;;;;;;;4.45;4.03;;;;;;;8.55;100.00;100417.13;5052325;28;20025;-76
2023/01/03 04:12:34;;;;;;;6.65;4.68;;;;;;;8.52;100.00;100417.22;5052042;28;20112;-76
2023/01/03 04:15:00;;;;;;;5.88;4.55;;;;;;;8.48;100.00;100416.44;5052233;28;20103;-76
2023/01/03 04:17:25;;;;;;;8.35;4.90;;;;;;;8.49;100.00;100425.94;5051914;28;20094;-76
2023/01/03 04:19:50;;;;;;;6.45;4.53;;;;;;;8.46;100.00;100426.00;5050829;28;20035;-76
2023/01/03 04:22:16;;;;;;;5.72;4.65;;;;;;;8.41;100.00;100422.69;5052330;28;20017;-76
2023/01/03 04:24:41;;;;;;;6.03;4.32;;;;;;;8.43;100.00;100426.09;5050821;28;20021;-76
2023/01/03 04:27:07;;;;;;;5.90;4.90;;;;;;;8.37;100.00;100432.28;5052144;28;20023;-76
2023/01/03 04:29:32;;;;;;;5.40;3.78;;;;;;;8.33;100.00;100448.78;5051843;28;20017;-76
2023/01/03 04:31:57;;;;;;;5.32;3.97;;;;;;;8.23;100.00;100442.97;5052150;28;20360;-76
2023/01/03 04:34:23;;;;;;;4.03;3.60;;;;;;;8.17;100.00;100440.53;5051869;28;20405;-76
2023/01/03 04:36:48;;;;;;;3.50;3.20;;;;;;;8.20;100.00;100463.81;5051820;28;20024;-76
2023/01/03 04:39:13;;;;;;;5.40;3.60;;;;;;;8.12;100.00;100467.47;5051752;28;20079;-76
2023/01/03 04:41:39;;;;;;;3.60;3.30;;;;;;;8.07;100.00;100472.78;5051816;28;20057;-76
2023/01/03 04:44:04;;;;;;;5.13;3.10;;;;;;;8.03;100.00;100460.75;5052162;28;20037;-76
2023/01/03 04:46:35;;;;;;;3.97;3.10;;;;;;;8.11;100.00;100458.00;5051729;28;20389;-76
2023/01/03 04:49:03;;;;;;;4.07;3.50;;;;;;;8.23;100.00;100478.47;5051853;28;20402;-76
2023/01/03 04:51:28;;;;;;;6.70;3.40;;;;;;;8.20;100.00;100470.75;5051863;28;20024;-76
2023/01/03 04:53:54;;;;;;;3.70;3.33;;;;;;;8.33;100.00;100486.88;5051694;28;20025;-76
2023/01/03 04:56:27;;;;;;;3.90;2.97;;;;;;;8.31;100.00;100475.69;5051664;28;20021;-76
2023/01/03 04:58:53;;;;;;;4.85;2.83;;;;;;;8.33;100.00;100482.53;5051833;28;20040;-76
2023/01/03 05:01:18;;;;;;;4.03;3.10;;;;;;;8.24;100.00;100467.19;5051699;28;20017;-76
2023/01/03 05:03:44;;;;;;;2.78;2.50;;;;;;;8.25;100.00;100477.53;5051349;28;20079;-76
2023/01/03 05:06:11;;;;;;;5.47;3.05;;;;;;;8.20;100.00;100483.72;5051855;28;20025;-76
2023/01/03 05:08:37;;;;;;;3.88;3.00;;;;;;;8.18;100.00;100488.09;5051532;28;20033;-76
2023/01/03 05:11:04;;;;;;;3.53;3.22;;;;;;;8.15;100.00;100476.03;5051541;28;20028;-76
2023/01/03 05:13:29;;;;;;;3.95;3.03;;;;;;;8.22;100.00;100485.41;5051377;28;20090;-76
2023/01/03 05:15:54;;;;;;;5.78;3.53;;;;;;;8.27;100.00;100487.88;5054377;28;20033;-76
2023/01/03 05:18:20;;;;;;;4.57;3.50;;;;;;;8.27;100.00;100481.84;5055501;28;20112;-76
2023/01/03 05:26:19;;;;;;;4.55;4.05;;;;;;;8.31;100.00;100493.84;5055517;28;20554;-76
2023/01/03 05:28:48;;;;;;;7.00;4.05;;;;;;;8.33;100.00;100492.91;5054997;28;20036;-76
2023/01/03 05:31:13;;;;;;;4.32;3.78;;;;;;;8.33;100.00;100502.44;5055601;28;20017;-76
2023/01/03 05:33:40;;;;;;;4.65;3.35;;;;;;;8.41;100.00;100511.78;5055301;28;20378;-76
2023/01/03 05:36:06;;;;;;;4.32;3.80;;;;;;;8.41;100.00;100508.34;5055347;28;20029;-76
2023/01/03 05:38:31;;;;;;;5.13;4.13;;;;;;;8.37;100.00;100504.97;5055071;28;20431;-76
2023/01/03 05:40:57;;;;;;;8.13;4.55;;;;;;;8.34;100.00;100499.81;5055036;28;20048;-76
2023/01/03 05:43:22;;;;;;;6.13;4.68;;;;;;;8.41;100.00;100513.53;5053429;28;20036;-76
2023/01/03 05:45:52;;;;;;;5.10;4.03;;;;;;;8.40;100.00;100512.69;5055532;28;20021;-76
2023/01/03 05:48:18;;;;;;;6.22;4.70;;;;;;;8.34;100.00;100492.00;5055158;28;20380;-76
2023/01/03 05:50:44;;;;;;;6.15;4.63;;;;;;;8.39;100.00;100518.78;5054849;28;20056;-76
2023/01/03 05:53:11;;;;;;;5.82;4.72;;;;;;;8.42;100.00;100520.44;5054899;28;20095;-75
2023/01/03 05:55:37;;;;;;;4.97;4.18;;;;;;;8.36;100.00;100523.16;5054655;28;20029;-76
2023/01/03 05:58:03;;;;;;;6.28;4.65;;;;;;;8.41;100.00;100529.97;5055805;28;20078;-76
2023/01/03 06:00:28;;;;;;;5.32;4.00;;;;;;;8.39;100.00;100530.91;5054704;28;20131;-76
2023/01/03 06:02:54;;;;;;;5.47;4.00;;;;;;;8.42;100.00;100538.59;5054977;28;20025;-76
2023/01/03 06:05:19;;;;;;;6.78;3.95;;;;;;;8.40;100.00;100538.66;5054929;28;20024;-75
2023/01/03 06:07:45;;;;;;;6.53;4.22;;;;;;;8.30;100.00;100521.56;5054637;28;20060;-76
2023/01/03 06:10:10;;;;;;;5.75;4.50;;;;;;;8.35;100.00;100537.03;5055126;28;20021;-76
2023/01/03 06:12:35;;;;;;;5.00;3.90;;;;;;;8.39;100.00;100547.31;5054357;28;20025;-76
2023/01/03 06:15:01;;;;;;;5.30;4.07;;;;;;;8.33;100.00;100546.56;5054610;28;20063;-76
2023/01/03 06:20:10;;;;;;;5.07;4.00;;;;;;;8.35;100.00;100552.59;5054527;28;20032;-75
2023/01/03 06:22:36;;;;;;;5.15;3.58;;;;;;;8.30;100.00;100552.72;5054200;28;20025;-76
2023/01/03 06:25:01;;;;;;;4.70;3.60;;;;;;;8.33;100.00;100564.75;5054427;28;20508;-75
2023/01/03 06:27:27;;;;;;;5.22;3.67;;;;;;;8.35;100.00;100574.22;5052849;28;20056;-75
2023/01/03 06:29:52;;;;;;;3.33;2.83;;;;;;;8.28;100.00;100566.59;5054495;28;20448;-76
2023/01/03 06:32:17;;;;;;;5.60;3.65;;;;;;;8.31;100.00;100574.31;5054383;28;20017;-76
2023/01/03 06:34:43;;;;;;;6.35;3.63;;;;;;;8.24;100.00;100565.81;5053929;28;20028;-75
2023/01/03 06:37:08;;;;;;;5.90;4.13;;;;;;;8.23;100.00;100572.75;5054060;28;20035;-75
2023/01/03 06:39:34;;;;;;;5.30;3.47;;;;;;;8.21;100.00;100581.44;5053927;28;20049;-76
2023/01/03 06:42:38;;;;;;;3.90;3.60;;;;;;;8.20;100.00;100579.72;5054423;28;20033;-76
2023/01/03 06:53:10;;;;;;;5.47;3.45;;;;;;;8.21;100.00;100584.88;5053665;28;20029;-75
2023/01/03 06:53:11;;;;;;;5.65;3.83;;;;;;;8.21;100.00;100607.38;5054182;28;20376;-75
2023/01/03 06:55:36;;;;;;;5.53;3.67;;;;;;;8.15;100.00;100605.78;5054032;28;20028;-75
2023/01/03 06:58:02;;;;;;;6.32;4.38;;;;;;;8.22;100.00;100629.88;5053809;28;20021;-75
2023/01/03 07:00:27;;;;;;;6.50;5.10;;;;;;;8.20;100.00;100621.25;5053352;28;20440;-75
2023/01/03 07:02:53;;;;;;;8.70;6.05;;;;;;;8.12;100.00;100617.97;5054070;28;20408;-76
2023/01/03 07:05:18;;;;;;;8.00;5.32;;;;;;;8.03;100.00;100610.38;5053862;28;20017;-76
2023/01/03 07:07:43;;;;;;;7.95;5.32;;;;;;;7.93;100.00;100628.72;5053449;28;20025;-76
2023/01/03 07:10:09;;;;;;;7.03;5.18;;;;;;;7.86;100.00;100634.91;5053626;28;20456;-75
2023/01/03 07:15:18;;;;;;;9.85;5.78;;;;;;;7.80;100.00;100645.44;5053583;28;20090;-75
2023/01/03 07:17:43;;;;;;;5.85;5.22;;;;;;;7.74;100.00;100641.19;5053495;28;20453;-77
2023/01/03 07:20:09;;;;;;;7.47;5.13;;;;;;;7.67;100.00;100631.84;5053719;28;20550;-76
2023/01/03 07:22:34;;;;;;;8.57;4.78;;;;;;;7.81;100.00;100661.84;5053160;28;20025;-76
2023/01/03 07:24:59;;;;;;;9.95;5.75;;;;;;;7.75;100.00;100655.00;5053263;28;20048;-76
2023/01/03 07:27:24;;;;;;;9.43;6.20;;;;;;;7.65;100.00;100648.31;5053224;28;20049;-76
2023/01/03 07:29:50;;;;;;;9.95;5.60;;;;;;;7.66;100.00;100650.84;5053167;28;20021;-76
2023/01/03 07:32:15;;;;;;;12.35;6.35;;;;;;;7.76;100.00;100669.72;5053226;28;20021;-76
2023/01/03 07:34:40;;;;;;;10.07;6.57;;;;;;;7.64;100.00;100657.81;5053028;28;20028;-76
2023/01/03 07:37:06;;;;;;;11.95;7.25;;;;;;;7.60;100.00;100666.53;5053056;28;20067;-76
2023/01/03 07:39:31;;;;;;;16.88;7.35;;;;;;;7.70;100.00;100672.41;5052846;28;20423;-76
2023/01/03 07:44:40;;;;;;;16.27;8.65;;;;;;;7.63;100.00;100676.00;5052788;28;20579;-76
2023/01/03 07:47:05;;;;;;;16.67;8.68;;;;;;;7.70;100.00;100683.63;5053123;28;20021;-76
2023/01/03 07:49:31;;;;;;;14.27;7.43;;;;;;;7.68;100.00;100681.97;5052814;28;20025;-76
2023/01/03 07:51:56;;;;;;;14.05;7.55;;;;;;;7.57;100.00;100678.69;5052711;28;20021;-76
2023/01/03 07:54:21;;;;;;;9.93;6.28;;;;;;;7.60;100.00;100676.91;5053287;28;20025;-76
2023/01/03 07:56:47;;;;;;;9.18;5.05;;;;;;;7.58;100.00;100657.91;5051436;28;20364;-76
2023/01/03 07:59:12;;;;;;;5.85;5.15;;;;;;;7.60;100.00;100669.13;5052802;28;20064;-76
2023/01/03 08:01:37;;;;;;;9.32;5.07;;;;;;;7.56;100.00;100680.44;5052246;28;20025;-76
2023/01/03 08:04:03;;;;;;;7.13;4.97;;;;;;;7.66;100.00;100670.75;5052538;28;20021;-76
2023/01/03 08:06:28;;;;;;;6.25;4.97;;;;;;;7.74;100.00;100684.44;5052313;28;20100;-76
2023/01/03 08:14:22;;;;;;;6.88;5.07;;;;;;;7.68;100.00;100698.38;5052564;28;20039;-76
2023/01/03 08:16:48;;;;;;;6.43;4.88;;;;;;;7.65;100.00;100694.97;5052323;28;20024;-76
2023/01/03 08:19:13;;;;;;;6.43;5.47;;;;;;;7.66;100.00;100707.91;5052720;28;20025;-76
2023/01/03 08:21:38;;;;;;;6.70;5.70;;;;;;;7.60;100.00;100708.03;5052571;28;20103;-76
2023/01/03 08:24:04;;;;;;;6.93;6.07;;;;;;;7.65;100.00;100716.56;5052460;28;20581;-76
2023/01/03 08:26:29;;;;;;;8.60;5.72;;;;;;;7.63;100.00;100720.09;5052472;28;20025;-76
2023/01/03 08:28:55;;;;;;;10.50;7.40;;;;;;;7.57;100.00;100710.66;5051981;28;20033;-76
2023/01/03 08:31:22;;;;;;;10.05;6.53;;;;;;;7.55;100.00;100706.41;5052514;28;20040;-76
2023/01/03 08:33:52;;;;;;;8.90;5.95;;;;;;;7.68;100.00;100732.06;5052337;28;20040;-76
2023/01/03 08:36:18;;;;;;;7.97;5.95;;;;;;;7.65;100.00;100726.94;5052532;28;20104;-76
2023/01/03 08:38:56;;;;;;;6.63;5.68;;;;;;;7.54;100.00;100720.22;5051844;28;20024;-76
2023/01/03 08:41:27;;;;;;;8.25;5.75;;;;;;;7.58;100.00;100727.06;5052476;28;20135;-76
2023/01/03 08:43:53;;;;;;;8.15;5.75;;;;;;;7.52;100.00;100722.00;5051767;28;20056;-76
2023/01/03 08:46:19;;;;;;;7.72;5.72;;;;;;;7.48;100.00;100726.38;5052020;28;20025;-76
2023/01/03 08:48:46;;;;;;;8.65;5.85;;;;;;;7.40;100.00;100721.31;5051368;28;20025;-76
2023/01/03 08:51:11;;;;;;;6.90;5.68;;;;;;;7.49;100.00;100735.84;5051532;28;20024;-76
2023/01/03 08:53:36;;;;;;;8.20;6.13;;;;;;;7.41;100.00;100733.38;5051782;28;20071;-76
2023/01/03 08:56:02;;;;;;;6.80;4.97;;;;;;;7.35;100.00;100743.00;5051879;28;20024;-76
2023/01/03 08:58:27;;;;;;;6.50;5.20;;;;;;;7.39;100.00;100748.13;5051901;28;20368;-76
2023/01/03 09:00:52;;;;;;;7.80;5.28;;;;;;;7.40;100.00;100729.09;5051600;28;20024;-76
2023/01/03 09:03:18;;;;;;;11.00;5.40;;;;;;;7.60;100.00;100748.66;5051609;28;20382;-77
2023/01/03 09:05:43;;;;;;;9.55;6.00;;;;;;;7.59;100.00;100752.97;5050499;28;20448;-76
2023/01/03 09:08:09;;;;;;;7.22;4.80;;;;;;;7.48;100.00;100747.09;5051805;28;20594;-77
2023/01/03 09:10:35;;;;;;;7.00;5.28;;;;;;;7.43;100.00;100738.56;5051865;28;20373;-76
2023/01/03 09:13:01;;;;;;;8.65;6.25;;;;;;;7.52;100.00;100758.28;5051686;28;20372;-77
2023/01/03 09:15:27;;;;;;;7.72;5.25;;;;;;;7.48;100.00;100767.84;5051760;28;20017;-77
2023/01/03 09:17:52;;;;;;;11.27;4.95;;;;;;;7.45;100.00;100776.50;5051629;28;20402;-77
2023/01/03 09:20:18;;;;;;;6.97;4.88;;;;;;;7.55;100.00;100769.47;5051795;28;20016;-76
2023/01/03 09:22:43;;;;;;;7.75;4.75;;;;;;;7.63;100.00;100756.38;5051384;28;20029;-77
2023/01/03 09:25:09;;;;;;;6.68;4.47;;;;;;;7.76;99.68;100763.06;5050388;28;20477;-77
2023/01/03 09:27:34;;;;;;;7.82;4.47;;;;;;;7.68;98.51;100754.56;5051676;28;20036;-77
2023/01/03 09:30:00;;;;;;;8.98;5.18;;;;;;;7.76;99.21;100768.25;5051360;28;20473;-76
2023/01/03 09:32:26;;;;;;;5.57;4.43;;;;;;;7.84;98.49;100762.94;5051363;28;20515;-77
2023/01/03 09:34:51;;;;;;;7.10;4.40;;;;;;;7.80;96.53;100769.91;5051564;28;20104;-76
2023/01/03 09:37:16;;;;;;;10.15;4.50;;;;;;;7.63;97.09;100761.56;5050350;28;20404;-77
2023/01/03 09:39:42;;;;;;;6.10;4.68;;;;;;;7.64;98.03;100752.91;5051317;28;20103;-77
2023/01/03 09:45:01;;;;;;;7.20;4.50;;;;;;;7.54;97.19;100764.28;5051236;28;20086;-77
2023/01/03 09:47:31;;;;;;;5.72;3.97;;;;;;;7.65;98.68;100778.78;5051627;28;20032;-76
2023/01/03 09:49:56;;;;;;;5.53;4.07;;;;;;;7.55;98.59;100766.03;5051595;28;20541;-77
2023/01/03 10:04:29;;;;;;;5.18;3.95;;;;;;;7.39;100.00;100773.19;5054839;28;20536;-77
2023/01/03 10:07:07;;;;;;;5.70;4.70;;;;;;;7.52;100.00;100773.84;5032379;28;20037;-76
2023/01/03 10:10:11;;;;;;;6.15;4.63;;;;;;;7.49;100.00;100762.63;5015741;28;20041;-76
2023/01/03 10:13:03;;;;;;;7.30;5.43;;;;;;;7.42;100.00;100783.50;5032199;28;20037;-76
2023/01/03 10:15:54;;;;;;;10.27;5.60;;;;;;;7.26;100.00;100788.06;4954141;29;20096;-77
2023/01/03 10:18:44;;;;;;;7.18;5.63;;;;;;;7.34;100.00;100785.38;4953956;29;20042;-77
2023/01/03 10:21:39;;;;;;;8.00;6.60;;;;;;;7.50;100.00;100772.13;4953845;29;20035;-77
2023/01/03 10:24:21;;;;;;;10.48;6.63;;;;;;;7.66;100.00;100770.13;4953823;29;20124;-77
2023/01/03 10:26:51;;;;;;;7.35;5.65;;;;;;;7.60;100.00;100759.88;4953919;29;20035;-77
2023/01/03 10:29:17;;;;;;;10.57;5.57;;;;;;;7.63;100.00;100771.94;4954131;29;20055;-77
2023/01/03 10:31:58;;;;;;;7.68;5.75;;;;;;;7.67;100.00;100783.97;4953778;29;20077;-77
2023/01/03 10:34:23;;;;;;;10.50;6.45;;;;;;;7.68;100.00;100768.38;4954022;29;20479;-76
2023/01/03 10:36:49;;;;;;;7.18;5.40;;;;;;;7.68;100.00;100776.16;4953603;29;20111;-77
2023/01/03 10:39:28;;;;;;;8.88;5.75;;;;;;;7.41;100.00;100767.06;4953799;29;20077;-77
2023/01/03 10:41:57;;;;;;;8.70;6.60;;;;;;;7.44;100.00;100771.38;4953580;29;20502;-77
2023/01/03 10:44:28;;;;;;;10.88;7.20;;;;;;;7.56;100.00;100775.50;4980351;28;20092;-76
2023/01/03 10:46:57;;;;;;;8.98;7.28;;;;;;;7.61;100.00;100760.72;4992271;28;20046;-77
2023/01/03 10:49:25;;;;;;;12.88;9.27;;;;;;;7.65;100.00;100770.16;4992367;28;20030;-77
2023/01/03 10:52:13;;;;;;;14.57;10.02;;;;;;;7.66;100.00;100754.56;5008006;28;20037;-77
2023/01/03 10:54:55;;;;;;;11.65;6.95;;;;;;;7.69;100.00;100754.53;5054127;28;20024;-77
2023/01/03 10:57:38;;;;;;;12.57;8.05;;;;;;;7.63;100.00;100764.16;5054065;28;20367;-76
2023/01/03 11:00:20;;;;;;;7.93;6.60;;;;;;;7.54;100.00;100752.19;5053717;28;20021;-77
2023/01/03 11:02:46;;;;;;;12.07;7.80;;;;;;;7.47;100.00;100748.00;5053873;28;20024;-77
2023/01/03 11:05:21;;;;;;;8.80;6.25;;;;;;;7.46;100.00;100762.69;5054376;28;20400;-76
2023/01/03 11:07:54;;;;;;;12.40;8.00;;;;;;;7.64;100.00;100769.31;5054122;28;20025;-77
2023/01/03 11:10:20;;;;;;;9.90;6.40;;;;;;;8.00;100.00;100764.34;5053699;28;20100;-77
2023/01/03 11:12:46;;;;;;;7.60;5.80;;;;;;;8.45;100.00;100747.06;5052751;28;20025;-77
2023/01/03 11:15:19;;;;;;;8.05;4.97;;;;;;;8.60;100.00;100735.53;5053807;28;20028;-77
2023/01/03 11:18:16;;;;;;;6.88;5.22;;;;;;;8.79;100.00;100753.31;5053452;28;20029;-77
2023/01/03 11:21:13;;;;;;;5.15;4.45;;;;;;;8.95;100.00;100745.16;5051465;28;20033;-76
2023/01/03 11:23:50;;;;;;;5.82;4.70;;;;;;;8.98;99.02;100757.22;5053617;28;20472;-77
2023/01/03 11:26:45;;;;;;;6.80;4.55;;;;;;;8.86;97.17;100745.34;5053490;28;20334;-76
2023/01/03 11:29:41;;;;;;;7.43;5.47;;;;;;;8.84;97.05;100754.06;5053399;28;20017;-77
2023/01/03 11:32:22;;;;;;;10.05;8.23;;;;;;;8.94;96.56;100742.59;5053256;28;20029;-77
2023/01/03 11:35:11;;;;;;;9.50;5.70;;;;;;;8.88;95.90;100735.78;5053119;28;20036;-77
2023/01/03 11:37:48;;;;;;;8.32;5.90;;;;;;;8.67;94.16;100742.28;5053476;28;20017;-77
2023/01/03 11:40:24;;;;;;;9.32;7.50;;;;;;;8.41;94.80;100737.63;5053236;28;20052;-77
2023/01/03 11:43:20;;;;;;;7.82;5.47;;;;;;;8.34;96.44;100737.75;5052839;28;20028;-77
2023/01/03 11:46:17;;;;;;;10.68;6.53;;;;;;;8.17;95.84;100745.88;5052925;28;20035;-76
2023/01/03 11:49:06;;;;;;;8.23;5.40;;;;;;;8.03;97.08;100738.34;5053117;28;20066;-77
2023/01/03 11:51:59;;;;;;;8.57;5.35;;;;;;;8.09;97.87;100748.63;5052995;28;20360;-77
2023/01/03 11:54:42;;;;;;;11.80;5.72;;;;;;;8.08;97.95;100752.09;5053160;28;20028;-77
2023/01/03 11:57:25;;;;;;;14.52;8.68;;;;;;;8.02;97.22;100749.63;5052789;28;20033;-76
2023/01/03 12:00:34;;;;;;;7.90;5.15;;;;;;;7.92;96.05;100753.25;5053314;28;20025;-76
2023/01/03 12:03:05;;;;;;;16.00;11.75;;;;;;;7.81;96.99;100748.28;5052623;28;20025;-76
2023/01/03 12:05:33;;;;;;;9.38;6.35;;;;;;;7.85;96.41;100756.88;5052809;28;20021;-76
2023/01/03 12:08:10;;;;;;;10.10;5.85;;;;;;;7.80;95.63;100754.34;5052756;28;20428;-77
2023/01/03 12:11:03;;;;;;;9.35;5.25;;;;;;;7.87;96.29;100745.56;5052589;28;20025;-77
2023/01/03 12:13:58;;;;;;;9.52;6.00;;;;;;;8.06;95.76;100745.25;5052727;28;20084;-76
2023/01/03 12:16:35;;;;;;;7.00;5.75;;;;;;;8.20;94.51;100746.66;5052970;28;20025;-77
2023/01/03 12:19:33;;;;;;;12.10;5.72;;;;;;;8.28;93.46;100735.28;5052357;28;20021;-77
2023/01/03 12:22:33;;;;;;;7.15;5.03;;;;;;;8.41;92.17;100749.78;5051924;28;20111;-77
2023/01/03 12:25:15;;;;;;;9.15;5.70;;;;;;;8.45;91.82;100751.41;5029675;28;20184;-76
2023/01/03 12:27:45;;;;;;;11.02;8.07;;;;;;;8.45;91.88;100754.00;5029934;28;20034;-77
2023/01/03 12:30:28;;;;;;;7.07;5.32;;;;;;;8.45;90.93;100751.41;5029717;28;20072;-77
2023/01/03 12:33:06;;;;;;;6.75;5.18;;;;;;;8.36;90.87;100742.03;5029758;28;20032;-77
2023/01/03 12:35:47;;;;;;;7.85;5.18;;;;;;;8.37;90.76;100736.00;5029863;28;20087;-77
2023/01/03 12:38:12;;;;;;;12.50;7.78;;;;;;;8.25;90.70;100724.06;5029569;28;20041;-76
2023/01/03 12:40:53;;;;;;;7.32;6.00;;;;;;;8.28;90.71;100745.69;5029628;28;20052;-76
2023/01/03 12:43:25;;;;;;;6.63;4.50;;;;;;;8.19;91.09;100744.13;5029578;28;20075;-76
2023/01/03 12:46:03;;;;;;;12.25;6.30;;;;;;;8.07;91.30;100737.41;5029539;28;20036;-77